sensor_id;sensor_type;location;lat;lon;timestamp;P1;durP1;ratioP1;P2;durP2;ratioP2
22184;SDS011;11258;52.516;13.318;2023-04-01T00:02:17;4.10;;;1.83;;
22184;SDS011;11258;52.516;13.318;2023-04-01T00:04:43;5.70;;;1.97;;
22184;SDS011;11258;52.516;13.318;2023-04-01T00:07:10;5.20;;;1.90;;
22184;SDS011;11258;52.516;13.318;2023-04-01T00:09:36;3.57;;;1.70;;
22184;SDS011;11258;52.516;13.318;2023-04-01T00:12:02;2.43;;;1.77;;
22184;SDS011;11258;52.516;13.318;2023-04-01T00:14:28;5.73;;;2.30;;
22184;SDS011;11258;52.516;13.318;2023-04-01T00:16:54;4.37;;;2.10;;
22184;SDS011;11258;52.516;13.318;2023-04-01T00:19:20;2.97;;;1.93;;
22184;SDS011;11258;52.516;13.318;2023-04-01T00:21:45;3.97;;;2.10;;
22184;SDS011;11258;52.516;13.318;2023-04-01T00:24:11;5.10;;;2.37;;
22184;SDS011;11258;52.516;13.318;2023-04-01T00:26:37;3.50;;;1.53;;
22184;SDS011;11258;52.516;13.318;2023-04-01T00:29:02;2.93;;;2.00;;
22184;SDS011;11258;52.516;13.318;2023-04-01T00:31:28;4.73;;;1.80;;
22184;SDS011;11258;52.516;13.318;2023-04-01T00:33:54;5.43;;;2.00;;
22184;SDS011;11258;52.516;13.318;2023-04-01T00:36:21;3.93;;;1.80;;
22184;SDS011;11258;52.516;13.318;2023-04-01T00:38:48;2.60;;;2.03;;
22184;SDS011;11258;52.516;13.318;2023-04-01T00:41:14;4.83;;;2.10;;
22184;SDS011;11258;52.516;13.318;2023-04-01T00:43:42;5.43;;;2.07;;
22184;SDS011;11258;52.516;13.318;2023-04-01T00:46:08;13.77;;;6.83;;
22184;SDS011;11258;52.516;13.318;2023-04-01T00:48:35;4.43;;;2.10;;
22184;SDS011;11258;52.516;13.318;2023-04-01T00:51:04;3.97;;;1.93;;
22184;SDS011;11258;52.516;13.318;2023-04-01T00:53:34;5.17;;;2.73;;
22184;SDS011;11258;52.516;13.318;2023-04-01T00:56:06;11.67;;;5.03;;
22184;SDS011;11258;52.516;13.318;2023-04-01T00:58:45;3.83;;;2.10;;
22184;SDS011;11258;52.516;13.318;2023-04-01T01:01:14;3.70;;;1.70;;
22184;SDS011;11258;52.516;13.318;2023-04-01T01:03:40;3.80;;;1.73;;
22184;SDS011;11258;52.516;13.318;2023-04-01T01:36:28;3.57;;;1.90;;
22184;SDS011;11258;52.516;13.318;2023-04-01T01:39:00;4.40;;;2.17;;
22184;SDS011;11258;52.516;13.318;2023-04-01T01:41:27;3.87;;;2.00;;
22184;SDS011;11258;52.516;13.318;2023-04-01T01:43:56;2.37;;;1.60;;
22184;SDS011;11258;52.516;13.318;2023-04-01T01:46:23;3.60;;;1.67;;
22184;SDS011;11258;52.516;13.318;2023-04-01T01:48:51;8.27;;;2.47;;
22184;SDS011;11258;52.516;13.318;2023-04-01T01:51:18;4.00;;;1.90;;
22184;SDS011;11258;52.516;13.318;2023-04-01T01:53:46;4.10;;;2.03;;
22184;SDS011;11258;52.516;13.318;2023-04-01T01:56:12;2.93;;;1.87;;
22184;SDS011;11258;52.516;13.318;2023-04-01T01:58:45;3.77;;;1.80;;
22184;SDS011;11258;52.516;13.318;2023-04-01T02:01:24;4.47;;;1.70;;
22184;SDS011;11258;52.516;13.318;2023-04-01T02:03:52;4.27;;;1.90;;
22184;SDS011;11258;52.516;13.318;2023-04-01T02:06:21;5.13;;;1.87;;
22184;SDS011;11258;52.516;13.318;2023-04-01T02:08:52;5.53;;;1.60;;
22184;SDS011;11258;52.516;13.318;2023-04-01T02:12:03;3.27;;;1.90;;
22184;SDS011;11258;52.516;13.318;2023-04-01T02:14:29;2.80;;;1.70;;
22184;SDS011;11258;52.516;13.318;2023-04-01T02:17:10;3.60;;;2.00;;
22184;SDS011;11258;52.516;13.318;2023-04-01T02:19:50;3.33;;;2.23;;
22184;SDS011;11258;52.516;13.318;2023-04-01T02:22:20;3.10;;;1.67;;
22184;SDS011;11258;52.516;13.318;2023-04-01T02:24:50;3.10;;;1.77;;
22184;SDS011;11258;52.516;13.318;2023-04-01T02:27:18;5.13;;;1.73;;
22184;SDS011;11258;52.516;13.318;2023-04-01T02:29:45;2.97;;;1.70;;
22184;SDS011;11258;52.516;13.318;2023-04-01T02:32:11;3.93;;;1.63;;
22184;SDS011;11258;52.516;13.318;2023-04-01T02:34:39;4.23;;;1.90;;
22184;SDS011;11258;52.516;13.318;2023-04-01T02:37:05;4.67;;;2.00;;
22184;SDS011;11258;52.516;13.318;2023-04-01T02:39:31;3.27;;;1.77;;
22184;SDS011;11258;52.516;13.318;2023-04-01T02:41:56;4.57;;;1.73;;
22184;SDS011;11258;52.516;13.318;2023-04-01T02:44:22;7.13;;;1.97;;
22184;SDS011;11258;52.516;13.318;2023-04-01T02:46:48;5.93;;;1.90;;
22184;SDS011;11258;52.516;13.318;2023-04-01T02:49:13;3.30;;;1.93;;
22184;SDS011;11258;52.516;13.318;2023-04-01T02:51:39;2.83;;;1.30;;
22184;SDS011;11258;52.516;13.318;2023-04-01T02:54:05;3.13;;;1.83;;
22184;SDS011;11258;52.516;13.318;2023-04-01T02:56:30;5.37;;;2.00;;
22184;SDS011;11258;52.516;13.318;2023-04-01T02:58:56;4.87;;;2.10;;
22184;SDS011;11258;52.516;13.318;2023-04-01T03:01:22;2.87;;;1.73;;
22184;SDS011;11258;52.516;13.318;2023-04-01T03:03:47;2.53;;;2.03;;
22184;SDS011;11258;52.516;13.318;2023-04-01T03:06:14;2.67;;;1.70;;
22184;SDS011;11258;52.516;13.318;2023-04-01T03:08:41;5.03;;;2.03;;
22184;SDS011;11258;52.516;13.318;2023-04-01T03:11:06;4.87;;;1.97;;
22184;SDS011;11258;52.516;13.318;2023-04-01T03:13:32;5.93;;;1.90;;
22184;SDS011;11258;52.516;13.318;2023-04-01T03:15:58;5.23;;;1.53;;
22184;SDS011;11258;52.516;13.318;2023-04-01T03:18:23;3.77;;;1.70;;
22184;SDS011;11258;52.516;13.318;2023-04-01T03:20:49;3.50;;;1.70;;
22184;SDS011;11258;52.516;13.318;2023-04-01T03:23:15;3.07;;;1.83;;
22184;SDS011;11258;52.516;13.318;2023-04-01T03:25:42;2.93;;;1.80;;
22184;SDS011;11258;52.516;13.318;2023-04-01T03:28:08;3.57;;;1.90;;
22184;SDS011;11258;52.516;13.318;2023-04-01T03:30:34;2.97;;;2.10;;
22184;SDS011;11258;52.516;13.318;2023-04-01T03:33:00;4.30;;;2.00;;
22184;SDS011;11258;52.516;13.318;2023-04-01T03:35:26;5.70;;;2.10;;
22184;SDS011;11258;52.516;13.318;2023-04-01T03:37:52;5.07;;;2.30;;
22184;SDS011;11258;52.516;13.318;2023-04-01T03:40:19;4.00;;;2.40;;
22184;SDS011;11258;52.516;13.318;2023-04-01T03:42:45;4.07;;;2.00;;
22184;SDS011;11258;52.516;13.318;2023-04-01T03:45:11;4.63;;;1.80;;
22184;SDS011;11258;52.516;13.318;2023-04-01T03:47:37;6.20;;;1.90;;
22184;SDS011;11258;52.516;13.318;2023-04-01T03:50:04;4.30;;;2.07;;
22184;SDS011;11258;52.516;13.318;2023-04-01T03:52:30;2.63;;;1.70;;
22184;SDS011;11258;52.516;13.318;2023-04-01T03:54:56;5.53;;;1.80;;
22184;SDS011;11258;52.516;13.318;2023-04-01T03:57:22;4.07;;;1.97;;
22184;SDS011;11258;52.516;13.318;2023-04-01T03:59:47;4.20;;;2.30;;
22184;SDS011;11258;52.516;13.318;2023-04-01T04:02:13;2.83;;;1.63;;
22184;SDS011;11258;52.516;13.318;2023-04-01T04:04:39;5.57;;;1.97;;
22184;SDS011;11258;52.516;13.318;2023-04-01T04:07:05;5.10;;;2.07;;
22184;SDS011;11258;52.516;13.318;2023-04-01T04:09:31;4.73;;;2.13;;
22184;SDS011;11258;52.516;13.318;2023-04-01T04:11:58;2.67;;;1.77;;
22184;SDS011;11258;52.516;13.318;2023-04-01T04:14:24;2.93;;;1.70;;
22184;SDS011;11258;52.516;13.318;2023-04-01T04:16:50;5.37;;;2.40;;
22184;SDS011;11258;52.516;13.318;2023-04-01T04:19:15;4.60;;;2.00;;
22184;SDS011;11258;52.516;13.318;2023-04-01T04:21:41;4.83;;;2.27;;
22184;SDS011;11258;52.516;13.318;2023-04-01T04:24:07;5.90;;;2.10;;
22184;SDS011;11258;52.516;13.318;2023-04-01T04:26:33;6.77;;;2.47;;
22184;SDS011;11258;52.516;13.318;2023-04-01T04:28:59;3.97;;;1.90;;
22184;SDS011;11258;52.516;13.318;2023-04-01T04:31:25;6.53;;;2.13;;
22184;SDS011;11258;52.516;13.318;2023-04-01T04:33:52;6.33;;;2.53;;
22184;SDS011;11258;52.516;13.318;2023-04-01T04:36:18;4.10;;;2.17;;
22184;SDS011;11258;52.516;13.318;2023-04-01T04:38:45;3.97;;;2.37;;
22184;SDS011;11258;52.516;13.318;2023-04-01T04:41:15;6.10;;;2.67;;
22184;SDS011;11258;52.516;13.318;2023-04-01T04:43:47;6.50;;;2.40;;
22184;SDS011;11258;52.516;13.318;2023-04-01T04:46:15;5.93;;;2.47;;
22184;SDS011;11258;52.516;13.318;2023-04-01T04:48:40;7.47;;;2.50;;
22184;SDS011;11258;52.516;13.318;2023-04-01T04:51:06;6.10;;;2.70;;
22184;SDS011;11258;52.516;13.318;2023-04-01T04:53:32;6.90;;;2.50;;
22184;SDS011;11258;52.516;13.318;2023-04-01T04:55:58;7.97;;;3.00;;
22184;SDS011;11258;52.516;13.318;2023-04-01T04:58:23;6.80;;;2.90;;
22184;SDS011;11258;52.516;13.318;2023-04-01T05:00:49;5.00;;;2.73;;
22184;SDS011;11258;52.516;13.318;2023-04-01T05:03:15;7.63;;;3.00;;
22184;SDS011;11258;52.516;13.318;2023-04-01T05:05:47;5.93;;;3.10;;
22184;SDS011;11258;52.516;13.318;2023-04-01T05:08:13;5.43;;;2.60;;
22184;SDS011;11258;52.516;13.318;2023-04-01T05:10:39;7.83;;;3.00;;
22184;SDS011;11258;52.516;13.318;2023-04-01T05:13:05;6.77;;;2.77;;
22184;SDS011;11258;52.516;13.318;2023-04-01T05:15:31;3.73;;;2.40;;
22184;SDS011;11258;52.516;13.318;2023-04-01T05:17:57;6.43;;;2.50;;
22184;SDS011;11258;52.516;13.318;2023-04-01T05:20:22;4.33;;;2.30;;
22184;SDS011;11258;52.516;13.318;2023-04-01T05:22:48;6.30;;;2.57;;
22184;SDS011;11258;52.516;13.318;2023-04-01T05:25:14;8.53;;;3.13;;
22184;SDS011;11258;52.516;13.318;2023-04-01T05:27:39;7.93;;;2.90;;
22184;SDS011;11258;52.516;13.318;2023-04-01T05:30:05;4.73;;;2.90;;
22184;SDS011;11258;52.516;13.318;2023-04-01T05:32:31;5.97;;;2.37;;
22184;SDS011;11258;52.516;13.318;2023-04-01T05:34:57;5.00;;;2.93;;
22184;SDS011;11258;52.516;13.318;2023-04-01T05:37:23;4.83;;;2.80;;
22184;SDS011;11258;52.516;13.318;2023-04-01T05:39:48;4.53;;;3.17;;
22184;SDS011;11258;52.516;13.318;2023-04-01T05:42:14;8.27;;;2.67;;
22184;SDS011;11258;52.516;13.318;2023-04-01T05:44:40;5.63;;;2.73;;
22184;SDS011;11258;52.516;13.318;2023-04-01T05:47:06;5.57;;;2.67;;
22184;SDS011;11258;52.516;13.318;2023-04-01T05:49:32;6.67;;;2.50;;
22184;SDS011;11258;52.516;13.318;2023-04-01T05:51:58;7.73;;;3.10;;
22184;SDS011;11258;52.516;13.318;2023-04-01T05:54:24;4.37;;;2.23;;
22184;SDS011;11258;52.516;13.318;2023-04-01T05:56:50;5.60;;;2.50;;
22184;SDS011;11258;52.516;13.318;2023-04-01T05:59:15;6.63;;;2.50;;
22184;SDS011;11258;52.516;13.318;2023-04-01T06:01:41;5.00;;;2.50;;
22184;SDS011;11258;52.516;13.318;2023-04-01T06:04:09;9.27;;;3.43;;
22184;SDS011;11258;52.516;13.318;2023-04-01T06:06:38;6.40;;;3.37;;
22184;SDS011;11258;52.516;13.318;2023-04-01T06:09:26;8.57;;;2.77;;
22184;SDS011;11258;52.516;13.318;2023-04-01T06:14:55;7.20;;;2.90;;
22184;SDS011;11258;52.516;13.318;2023-04-01T06:26:52;5.90;;;2.70;;
22184;SDS011;11258;52.516;13.318;2023-04-01T06:31:43;6.17;;;2.63;;
22184;SDS011;11258;52.516;13.318;2023-04-01T06:48:35;3.83;;;2.20;;
22184;SDS011;11258;52.516;13.318;2023-04-01T06:54:06;6.60;;;2.60;;
22184;SDS011;11258;52.516;13.318;2023-04-01T06:56:37;7.63;;;2.70;;
22184;SDS011;11258;52.516;13.318;2023-04-01T06:59:09;5.87;;;2.73;;
22184;SDS011;11258;52.516;13.318;2023-04-01T07:01:42;8.87;;;2.87;;
22184;SDS011;11258;52.516;13.318;2023-04-01T07:09:49;6.50;;;2.50;;
22184;SDS011;11258;52.516;13.318;2023-04-01T07:12:26;5.60;;;2.43;;
22184;SDS011;11258;52.516;13.318;2023-04-01T07:14:57;5.83;;;2.77;;
22184;SDS011;11258;52.516;13.318;2023-04-01T07:17:30;7.37;;;2.70;;
22184;SDS011;11258;52.516;13.318;2023-04-01T07:20:17;5.77;;;2.40;;
22184;SDS011;11258;52.516;13.318;2023-04-01T07:22:49;5.53;;;2.60;;
22184;SDS011;11258;52.516;13.318;2023-04-01T07:27:43;6.27;;;2.43;;
22184;SDS011;11258;52.516;13.318;2023-04-01T07:30:14;3.83;;;2.77;;
22184;SDS011;11258;52.516;13.318;2023-04-01T07:32:48;4.20;;;2.40;;
22184;SDS011;11258;52.516;13.318;2023-04-01T07:49:17;5.17;;;1.90;;
22184;SDS011;11258;52.516;13.318;2023-04-01T07:51:53;6.00;;;2.13;;
22184;SDS011;11258;52.516;13.318;2023-04-01T07:57:22;4.57;;;2.22;;
22184;SDS011;11258;52.516;13.318;2023-04-01T08:03:00;3.33;;;1.90;;
22184;SDS011;11258;52.516;13.318;2023-04-01T08:05:58;7.00;;;2.55;;
22184;SDS011;11258;52.516;13.318;2023-04-01T08:22:38;2.20;;;1.63;;
22184;SDS011;11258;52.516;13.318;2023-04-01T08:25:17;1.85;;;1.55;;
22184;SDS011;11258;52.516;13.318;2023-04-01T08:28:33;3.20;;;1.35;;
22184;SDS011;11258;52.516;13.318;2023-04-01T08:33:15;2.03;;;1.50;;
22184;SDS011;11258;52.516;13.318;2023-04-01T08:38:13;4.05;;;2.22;;
22184;SDS011;11258;52.516;13.318;2023-04-01T08:41:27;1.75;;;1.30;;
22184;SDS011;11258;52.516;13.318;2023-04-01T09:00:32;6.20;;;3.80;;
22184;SDS011;11258;52.516;13.318;2023-04-01T09:11:28;5.63;;;3.67;;
22184;SDS011;11258;52.516;13.318;2023-04-01T09:14:16;5.47;;;4.40;;
22184;SDS011;11258;52.516;13.318;2023-04-01T09:25:34;8.53;;;6.70;;
22184;SDS011;11258;52.516;13.318;2023-04-01T09:33:49;7.70;;;6.47;;
22184;SDS011;11258;52.516;13.318;2023-04-01T09:42:14;10.80;;;7.63;;
22184;SDS011;11258;52.516;13.318;2023-04-01T10:15:09;12.90;;;9.60;;
22184;SDS011;11258;52.516;13.318;2023-04-01T10:54:40;12.20;;;10.10;;
22184;SDS011;11258;52.516;13.318;2023-04-01T11:21:49;8.80;;;7.53;;
22184;SDS011;11258;52.516;13.318;2023-04-01T11:32:15;8.40;;;7.57;;
22184;SDS011;11258;52.516;13.318;2023-04-01T11:40:54;10.03;;;7.73;;
22184;SDS011;11258;52.516;13.318;2023-04-01T11:46:33;9.73;;;8.73;;
22184;SDS011;11258;52.516;13.318;2023-04-01T11:49:25;10.97;;;9.13;;
22184;SDS011;11258;52.516;13.318;2023-04-01T11:57:35;11.27;;;9.73;;
22184;SDS011;11258;52.516;13.318;2023-04-01T12:16:59;10.43;;;9.33;;
22184;SDS011;11258;52.516;13.318;2023-04-01T12:19:39;13.43;;;10.87;;
22184;SDS011;11258;52.516;13.318;2023-04-01T12:25:19;11.17;;;8.77;;
22184;SDS011;11258;52.516;13.318;2023-04-01T12:30:37;11.33;;;10.13;;
22184;SDS011;11258;52.516;13.318;2023-04-01T12:44:13;11.57;;;10.03;;
22184;SDS011;11258;52.516;13.318;2023-04-01T12:52:49;12.23;;;10.13;;
22184;SDS011;11258;52.516;13.318;2023-04-01T12:55:43;10.20;;;9.17;;
22184;SDS011;11258;52.516;13.318;2023-04-01T12:58:21;11.63;;;10.40;;
22184;SDS011;11258;52.516;13.318;2023-04-01T13:01:16;13.03;;;10.03;;
22184;SDS011;11258;52.516;13.318;2023-04-01T13:09:03;17.10;;;12.50;;
22184;SDS011;11258;52.516;13.318;2023-04-01T13:11:55;12.47;;;10.63;;
22184;SDS011;11258;52.516;13.318;2023-04-01T13:14:59;13.77;;;11.80;;
22184;SDS011;11258;52.516;13.318;2023-04-01T13:33:45;14.37;;;11.27;;
22184;SDS011;11258;52.516;13.318;2023-04-01T13:36:26;11.27;;;8.83;;
22184;SDS011;11258;52.516;13.318;2023-04-01T13:41:47;10.33;;;9.10;;
22184;SDS011;11258;52.516;13.318;2023-04-01T13:45:38;14.03;;;11.53;;
22184;SDS011;11258;52.516;13.318;2023-04-01T13:56:00;12.53;;;9.43;;
22184;SDS011;11258;52.516;13.318;2023-04-01T14:01:13;11.60;;;8.60;;
22184;SDS011;11258;52.516;13.318;2023-04-01T14:03:53;9.53;;;8.53;;
22184;SDS011;11258;52.516;13.318;2023-04-01T14:09:10;9.47;;;8.20;;
22184;SDS011;11258;52.516;13.318;2023-04-01T14:11:49;10.43;;;8.67;;
22184;SDS011;11258;52.516;13.318;2023-04-01T14:25:48;10.33;;;8.17;;
22184;SDS011;11258;52.516;13.318;2023-04-01T14:28:37;7.30;;;6.53;;
22184;SDS011;11258;52.516;13.318;2023-04-01T14:47:44;6.43;;;4.63;;
22184;SDS011;11258;52.516;13.318;2023-04-01T14:50:16;6.17;;;4.67;;
22184;SDS011;11258;52.516;13.318;2023-04-01T14:55:50;5.67;;;4.60;;
22184;SDS011;11258;52.516;13.318;2023-04-01T14:58:16;6.10;;;5.27;;
22184;SDS011;11258;52.516;13.318;2023-04-01T15:00:48;6.30;;;5.10;;
22184;SDS011;11258;52.516;13.318;2023-04-01T15:05:52;5.10;;;4.43;;
22184;SDS011;11258;52.516;13.318;2023-04-01T15:08:29;6.53;;;5.20;;
22184;SDS011;11258;52.516;13.318;2023-04-01T15:14:13;7.57;;;4.83;;
22184;SDS011;11258;52.516;13.318;2023-04-01T15:28:37;4.87;;;4.33;;
22184;SDS011;11258;52.516;13.318;2023-04-01T15:31:29;8.87;;;5.40;;
22184;SDS011;11258;52.516;13.318;2023-04-01T15:40:15;6.10;;;4.80;;
22184;SDS011;11258;52.516;13.318;2023-04-01T15:45:36;8.70;;;5.67;;
22184;SDS011;11258;52.516;13.318;2023-04-01T15:51:28;6.40;;;5.20;;
22184;SDS011;11258;52.516;13.318;2023-04-01T15:56:28;9.17;;;6.47;;
22184;SDS011;11258;52.516;13.318;2023-04-01T16:01:43;6.83;;;5.93;;
22184;SDS011;11258;52.516;13.318;2023-04-01T16:10:17;8.83;;;5.83;;
22184;SDS011;11258;52.516;13.318;2023-04-01T16:13:14;6.20;;;4.67;;
22184;SDS011;11258;52.516;13.318;2023-04-01T16:21:52;8.00;;;5.87;;
22184;SDS011;11258;52.516;13.318;2023-04-01T16:27:08;6.83;;;5.60;;
22184;SDS011;11258;52.516;13.318;2023-04-01T16:43:35;5.83;;;4.17;;
22184;SDS011;11258;52.516;13.318;2023-04-01T16:51:20;5.47;;;3.97;;
22184;SDS011;11258;52.516;13.318;2023-04-01T16:53:48;3.87;;;3.50;;
22184;SDS011;11258;52.516;13.318;2023-04-01T16:59:02;4.97;;;3.63;;
22184;SDS011;11258;52.516;13.318;2023-04-01T17:01:44;6.30;;;3.47;;
22184;SDS011;11258;52.516;13.318;2023-04-01T17:09:56;4.10;;;3.40;;
22184;SDS011;11258;52.516;13.318;2023-04-01T17:12:43;4.93;;;4.13;;
22184;SDS011;11258;52.516;13.318;2023-04-01T17:17:49;7.07;;;4.70;;
22184;SDS011;11258;52.516;13.318;2023-04-01T17:23:12;5.60;;;4.43;;
22184;SDS011;11258;52.516;13.318;2023-04-01T17:41:48;6.00;;;4.40;;
22184;SDS011;11258;52.516;13.318;2023-04-01T17:52:47;5.87;;;4.53;;
22184;SDS011;11258;52.516;13.318;2023-04-01T18:00:56;7.57;;;5.47;;
22184;SDS011;11258;52.516;13.318;2023-04-01T18:15:12;8.30;;;4.70;;
22184;SDS011;11258;52.516;13.318;2023-04-01T18:23:12;8.70;;;5.33;;
22184;SDS011;11258;52.516;13.318;2023-04-01T18:26:05;6.60;;;4.43;;
22184;SDS011;11258;52.516;13.318;2023-04-01T18:28:39;7.77;;;5.33;;
22184;SDS011;11258;52.516;13.318;2023-04-01T18:31:15;7.20;;;4.47;;
22184;SDS011;11258;52.516;13.318;2023-04-01T18:33:54;7.83;;;4.90;;
22184;SDS011;11258;52.516;13.318;2023-04-01T18:42:00;6.93;;;5.43;;
22184;SDS011;11258;52.516;13.318;2023-04-01T18:50:17;7.13;;;5.13;;
22184;SDS011;11258;52.516;13.318;2023-04-01T18:52:57;7.90;;;4.97;;
22184;SDS011;11258;52.516;13.318;2023-04-01T18:55:40;8.50;;;5.50;;
22184;SDS011;11258;52.516;13.318;2023-04-01T19:01:37;7.87;;;5.20;;
22184;SDS011;11258;52.516;13.318;2023-04-01T19:04:24;11.47;;;6.50;;
22184;SDS011;11258;52.516;13.318;2023-04-01T19:07:21;9.57;;;6.30;;
22184;SDS011;11258;52.516;13.318;2023-04-01T19:10:13;23.27;;;15.10;;
22184;SDS011;11258;52.516;13.318;2023-04-01T19:18:12;12.10;;;7.33;;
22184;SDS011;11258;52.516;13.318;2023-04-01T19:20:45;11.90;;;6.53;;
22184;SDS011;11258;52.516;13.318;2023-04-01T19:26:10;13.87;;;7.07;;
22184;SDS011;11258;52.516;13.318;2023-04-01T19:34:41;12.43;;;7.63;;
22184;SDS011;11258;52.516;13.318;2023-04-01T19:40:08;9.20;;;5.97;;
22184;SDS011;11258;52.516;13.318;2023-04-01T19:43:01;10.93;;;7.70;;
22184;SDS011;11258;52.516;13.318;2023-04-01T19:45:51;12.23;;;8.03;;
22184;SDS011;11258;52.516;13.318;2023-04-01T19:51:14;15.50;;;9.03;;
22184;SDS011;11258;52.516;13.318;2023-04-01T19:53:47;11.37;;;8.33;;
22184;SDS011;11258;52.516;13.318;2023-04-01T19:56:22;12.10;;;7.70;;
22184;SDS011;11258;52.516;13.318;2023-04-01T20:01:26;15.30;;;8.83;;
22184;SDS011;11258;52.516;13.318;2023-04-01T20:04:10;10.93;;;7.60;;
22184;SDS011;11258;52.516;13.318;2023-04-01T20:09:31;15.57;;;8.83;;
22184;SDS011;11258;52.516;13.318;2023-04-01T20:12:24;14.37;;;9.80;;
22184;SDS011;11258;52.516;13.318;2023-04-01T20:15:07;13.57;;;8.37;;
22184;SDS011;11258;52.516;13.318;2023-04-01T20:17:47;13.07;;;7.97;;
22184;SDS011;11258;52.516;13.318;2023-04-01T20:20:32;13.17;;;8.50;;
22184;SDS011;11258;52.516;13.318;2023-04-01T20:23:15;15.27;;;8.40;;
22184;SDS011;11258;52.516;13.318;2023-04-01T20:26:03;11.77;;;7.13;;
22184;SDS011;11258;52.516;13.318;2023-04-01T20:29:02;13.23;;;7.70;;
22184;SDS011;11258;52.516;13.318;2023-04-01T20:31:59;12.20;;;9.20;;
22184;SDS011;11258;52.516;13.318;2023-04-01T20:37:44;12.10;;;8.77;;
22184;SDS011;11258;52.516;13.318;2023-04-01T20:40:30;15.00;;;8.97;;
22184;SDS011;11258;52.516;13.318;2023-04-01T21:10:54;13.80;;;9.20;;
22184;SDS011;11258;52.516;13.318;2023-04-01T21:30:38;17.90;;;9.27;;
22184;SDS011;11258;52.516;13.318;2023-04-01T21:36:18;19.27;;;7.80;;
22184;SDS011;11258;52.516;13.318;2023-04-01T21:42:21;16.90;;;8.17;;
22184;SDS011;11258;52.516;13.318;2023-04-01T22:10:40;10.17;;;7.37;;
22184;SDS011;11258;52.516;13.318;2023-04-01T22:13:20;11.63;;;7.00;;
22184;SDS011;11258;52.516;13.318;2023-04-01T22:16:03;11.97;;;8.03;;
22184;SDS011;11258;52.516;13.318;2023-04-01T22:18:36;11.20;;;6.30;;
22184;SDS011;11258;52.516;13.318;2023-04-01T22:26:15;5.93;;;4.43;;
22184;SDS011;11258;52.516;13.318;2023-04-01T22:28:55;7.37;;;5.00;;
22184;SDS011;11258;52.516;13.318;2023-04-01T22:31:26;9.10;;;4.83;;
22184;SDS011;11258;52.516;13.318;2023-04-01T22:34:03;8.63;;;4.63;;
22184;SDS011;11258;52.516;13.318;2023-04-01T22:37:01;10.53;;;4.40;;
22184;SDS011;11258;52.516;13.318;2023-04-01T22:39:56;7.57;;;4.53;;
22184;SDS011;11258;52.516;13.318;2023-04-01T22:48:21;6.03;;;4.37;;
22184;SDS011;11258;52.516;13.318;2023-04-01T22:51:38;6.40;;;4.47;;
22184;SDS011;11258;52.516;13.318;2023-04-01T23:02:07;5.73;;;4.70;;
22184;SDS011;11258;52.516;13.318;2023-04-01T23:04:37;10.73;;;5.63;;
22184;SDS011;11258;52.516;13.318;2023-04-01T23:09:53;7.63;;;4.77;;
22184;SDS011;11258;52.516;13.318;2023-04-01T23:12:21;5.93;;;4.73;;
22184;SDS011;11258;52.516;13.318;2023-04-01T23:14:50;6.57;;;5.10;;
22184;SDS011;11258;52.516;13.318;2023-04-01T23:25:13;5.80;;;4.20;;
22184;SDS011;11258;52.516;13.318;2023-04-01T23:28:07;7.23;;;4.93;;
22184;SDS011;11258;52.516;13.318;2023-04-01T23:33:38;9.33;;;4.80;;
22184;SDS011;11258;52.516;13.318;2023-04-01T23:36:13;6.40;;;4.60;;
22184;SDS011;11258;52.516;13.318;2023-04-01T23:38:41;8.00;;;4.57;;
22184;SDS011;11258;52.516;13.318;2023-04-01T23:41:45;7.77;;;4.50;;
22184;SDS011;11258;52.516;13.318;2023-04-01T23:44:05;9.47;;;5.17;;
22184;SDS011;11258;52.516;13.318;2023-04-01T23:46:36;8.00;;;4.97;;
22184;SDS011;11258;52.516;13.318;2023-04-01T23:49:04;7.73;;;4.80;;
22184;SDS011;11258;52.516;13.318;2023-04-01T23:51:39;9.33;;;4.90;;
22184;SDS011;11258;52.516;13.318;2023-04-01T23:54:19;8.43;;;4.63;;
22184;SDS011;11258;52.516;13.318;2023-04-01T23:56:56;7.57;;;4.60;;
22184;SDS011;11258;52.516;13.318;2023-04-01T23:59:43;9.30;;;4.57;;
